sensor_id;sensor_type;location;lat;lon;timestamp;pressure;altitude;pressure_sealevel;temperature
14851;BMP180;7517;48.400;11.770;2022-12-07T00:01:50;96302.00;;;9.00
14851;BMP180;7517;48.400;11.770;2022-12-07T00:04:18;96304.00;;;9.00
14851;BMP180;7517;48.400;11.770;2022-12-07T00:06:50;96299.00;;;9.00
14851;BMP180;7517;48.400;11.770;2022-12-07T00:09:18;96299.00;;;9.00
14851;BMP180;7517;48.400;11.770;2022-12-07T00:11:50;96292.00;;;9.00
14851;BMP180;7517;48.400;11.770;2022-12-07T00:14:18;96297.00;;;9.00
14851;BMP180;7517;48.400;11.770;2022-12-07T00:16:50;96291.00;;;9.00
14851;BMP180;7517;48.400;11.770;2022-12-07T00:19:18;96290.00;;;9.00
14851;BMP180;7517;48.400;11.770;2022-12-07T00:21:45;96293.00;;;9.00
14851;BMP180;7517;48.400;11.770;2022-12-07T00:24:12;96290.00;;;9.00
14851;BMP180;7517;48.400;11.770;2022-12-07T00:26:41;96290.00;;;9.00
14851;BMP180;7517;48.400;11.770;2022-12-07T00:29:15;96291.00;;;9.00
14851;BMP180;7517;48.400;11.770;2022-12-07T00:31:43;96292.00;;;9.00
14851;BMP180;7517;48.400;11.770;2022-12-07T00:34:15;96295.00;;;9.00
14851;BMP180;7517;48.400;11.770;2022-12-07T00:36:43;96295.00;;;9.00
14851;BMP180;7517;48.400;11.770;2022-12-07T00:39:10;96293.00;;;9.00
14851;BMP180;7517;48.400;11.770;2022-12-07T00:41:37;96292.00;;;9.00
14851;BMP180;7517;48.400;11.770;2022-12-07T00:44:05;96282.00;;;9.00
14851;BMP180;7517;48.400;11.770;2022-12-07T00:46:32;96291.00;;;9.00
14851;BMP180;7517;48.400;11.770;2022-12-07T00:48:59;96295.00;;;9.00
14851;BMP180;7517;48.400;11.770;2022-12-07T00:51:28;96284.00;;;9.00
14851;BMP180;7517;48.400;11.770;2022-12-07T00:53:55;96297.00;;;9.00
14851;BMP180;7517;48.400;11.770;2022-12-07T00:56:24;96284.00;;;9.00
14851;BMP180;7517;48.400;11.770;2022-12-07T00:58:53;96286.00;;;9.00
14851;BMP180;7517;48.400;11.770;2022-12-07T01:01:21;96283.00;;;8.90
14851;BMP180;7517;48.400;11.770;2022-12-07T01:03:49;96286.00;;;8.90
14851;BMP180;7517;48.400;11.770;2022-12-07T01:06:17;96280.00;;;8.90
14851;BMP180;7517;48.400;11.770;2022-12-07T01:08:46;96286.00;;;8.90
14851;BMP180;7517;48.400;11.770;2022-12-07T01:11:15;96282.00;;;8.90
14851;BMP180;7517;48.400;11.770;2022-12-07T01:13:43;96289.00;;;8.90
14851;BMP180;7517;48.400;11.770;2022-12-07T01:16:13;96282.00;;;8.90
14851;BMP180;7517;48.400;11.770;2022-12-07T01:18:45;96289.00;;;8.90
14851;BMP180;7517;48.400;11.770;2022-12-07T01:21:15;96292.00;;;9.00
14851;BMP180;7517;48.400;11.770;2022-12-07T01:23:44;96292.00;;;8.90
14851;BMP180;7517;48.400;11.770;2022-12-07T01:26:16;96291.00;;;8.90
14851;BMP180;7517;48.400;11.770;2022-12-07T01:28:44;96295.00;;;9.00
14851;BMP180;7517;48.400;11.770;2022-12-07T01:31:13;96287.00;;;8.90
14851;BMP180;7517;48.400;11.770;2022-12-07T01:33:43;96293.00;;;8.90
14851;BMP180;7517;48.400;11.770;2022-12-07T01:36:15;96283.00;;;8.90
14851;BMP180;7517;48.400;11.770;2022-12-07T01:38:43;96283.00;;;8.90
14851;BMP180;7517;48.400;11.770;2022-12-07T01:41:12;96287.00;;;8.90
14851;BMP180;7517;48.400;11.770;2022-12-07T01:44:28;96280.00;;;8.90
14851;BMP180;7517;48.400;11.770;2022-12-07T01:47:00;96282.00;;;8.90
14851;BMP180;7517;48.400;11.770;2022-12-07T01:49:34;96280.00;;;8.90
14851;BMP180;7517;48.400;11.770;2022-12-07T01:52:14;96278.00;;;8.90
14851;BMP180;7517;48.400;11.770;2022-12-07T01:54:44;96275.00;;;8.90
14851;BMP180;7517;48.400;11.770;2022-12-07T01:57:15;96273.00;;;8.90
14851;BMP180;7517;48.400;11.770;2022-12-07T01:59:47;96268.00;;;8.90
14851;BMP180;7517;48.400;11.770;2022-12-07T02:02:21;96277.00;;;8.90
14851;BMP180;7517;48.400;11.770;2022-12-07T02:04:51;96270.00;;;8.90
14851;BMP180;7517;48.400;11.770;2022-12-07T02:07:20;96277.00;;;8.90
14851;BMP180;7517;48.400;11.770;2022-12-07T02:09:48;96278.00;;;8.90
14851;BMP180;7517;48.400;11.770;2022-12-07T02:12:15;96266.00;;;8.90
14851;BMP180;7517;48.400;11.770;2022-12-07T02:14:44;96274.00;;;8.90
14851;BMP180;7517;48.400;11.770;2022-12-07T02:17:21;96277.00;;;8.90
14851;BMP180;7517;48.400;11.770;2022-12-07T02:20:19;96277.00;;;8.80
14851;BMP180;7517;48.400;11.770;2022-12-07T02:23:29;96274.00;;;8.80
14851;BMP180;7517;48.400;11.770;2022-12-07T02:29:49;96272.00;;;8.80
14851;BMP180;7517;48.400;11.770;2022-12-07T02:32:26;96278.00;;;8.80
14851;BMP180;7517;48.400;11.770;2022-12-07T02:35:01;96273.00;;;8.80
14851;BMP180;7517;48.400;11.770;2022-12-07T02:37:39;96286.00;;;8.80
14851;BMP180;7517;48.400;11.770;2022-12-07T02:40:14;96276.00;;;8.80
14851;BMP180;7517;48.400;11.770;2022-12-07T02:42:51;96268.00;;;8.80
14851;BMP180;7517;48.400;11.770;2022-12-07T02:45:25;96275.00;;;8.80
14851;BMP180;7517;48.400;11.770;2022-12-07T02:47:59;96275.00;;;8.80
14851;BMP180;7517;48.400;11.770;2022-12-07T02:50:27;96268.00;;;8.80
14851;BMP180;7517;48.400;11.770;2022-12-07T02:52:54;96266.00;;;8.70
14851;BMP180;7517;48.400;11.770;2022-12-07T02:55:29;96269.00;;;8.80
14851;BMP180;7517;48.400;11.770;2022-12-07T02:58:18;96263.00;;;8.70
14851;BMP180;7517;48.400;11.770;2022-12-07T03:01:01;96264.00;;;8.70
14851;BMP180;7517;48.400;11.770;2022-12-07T03:03:32;96263.00;;;8.80
14851;BMP180;7517;48.400;11.770;2022-12-07T03:06:11;96262.00;;;8.70
14851;BMP180;7517;48.400;11.770;2022-12-07T03:08:51;96268.00;;;8.70
14851;BMP180;7517;48.400;11.770;2022-12-07T03:11:29;96264.00;;;8.70
14851;BMP180;7517;48.400;11.770;2022-12-07T03:14:07;96262.00;;;8.70
14851;BMP180;7517;48.400;11.770;2022-12-07T03:16:43;96261.00;;;8.70
14851;BMP180;7517;48.400;11.770;2022-12-07T03:19:17;96260.00;;;8.70
14851;BMP180;7517;48.400;11.770;2022-12-07T03:21:51;96262.00;;;8.70
14851;BMP180;7517;48.400;11.770;2022-12-07T03:24:26;96264.00;;;8.70
14851;BMP180;7517;48.400;11.770;2022-12-07T03:27:01;96258.00;;;8.60
14851;BMP180;7517;48.400;11.770;2022-12-07T03:29:34;96262.00;;;8.60
14851;BMP180;7517;48.400;11.770;2022-12-07T03:32:10;96257.00;;;8.60
14851;BMP180;7517;48.400;11.770;2022-12-07T03:34:46;96251.00;;;8.60
14851;BMP180;7517;48.400;11.770;2022-12-07T03:37:24;96254.00;;;8.60
14851;BMP180;7517;48.400;11.770;2022-12-07T03:39:59;96256.00;;;8.60
14851;BMP180;7517;48.400;11.770;2022-12-07T03:42:29;96248.00;;;8.60
14851;BMP180;7517;48.400;11.770;2022-12-07T03:44:57;96248.00;;;8.60
14851;BMP180;7517;48.400;11.770;2022-12-07T03:47:33;96257.00;;;8.60
14851;BMP180;7517;48.400;11.770;2022-12-07T03:50:09;96249.00;;;8.60
14851;BMP180;7517;48.400;11.770;2022-12-07T03:52:42;96240.00;;;8.60
14851;BMP180;7517;48.400;11.770;2022-12-07T03:55:18;96254.00;;;8.60
14851;BMP180;7517;48.400;11.770;2022-12-07T03:57:51;96243.00;;;8.60
14851;BMP180;7517;48.400;11.770;2022-12-07T04:00:19;96242.00;;;8.60
14851;BMP180;7517;48.400;11.770;2022-12-07T04:02:52;96246.00;;;8.60
14851;BMP180;7517;48.400;11.770;2022-12-07T04:05:19;96237.00;;;8.60
14851;BMP180;7517;48.400;11.770;2022-12-07T04:07:46;96243.00;;;8.60
14851;BMP180;7517;48.400;11.770;2022-12-07T04:10:14;96237.00;;;8.60
14851;BMP180;7517;48.400;11.770;2022-12-07T04:12:41;96236.00;;;8.60
14851;BMP180;7517;48.400;11.770;2022-12-07T04:15:09;96236.00;;;8.50
14851;BMP180;7517;48.400;11.770;2022-12-07T04:17:36;96234.00;;;8.50
14851;BMP180;7517;48.400;11.770;2022-12-07T04:20:07;96237.00;;;8.50
14851;BMP180;7517;48.400;11.770;2022-12-07T04:22:34;96240.00;;;8.50
14851;BMP180;7517;48.400;11.770;2022-12-07T04:25:01;96236.00;;;8.50
14851;BMP180;7517;48.400;11.770;2022-12-07T04:27:29;96244.00;;;8.60
14851;BMP180;7517;48.400;11.770;2022-12-07T04:29:56;96233.00;;;8.60
14851;BMP180;7517;48.400;11.770;2022-12-07T04:32:23;96235.00;;;8.60
14851;BMP180;7517;48.400;11.770;2022-12-07T04:34:51;96229.00;;;8.60
14851;BMP180;7517;48.400;11.770;2022-12-07T04:37:19;96232.00;;;8.60
14851;BMP180;7517;48.400;11.770;2022-12-07T04:39:46;96232.00;;;8.60
14851;BMP180;7517;48.400;11.770;2022-12-07T04:42:14;96219.00;;;8.60
14851;BMP180;7517;48.400;11.770;2022-12-07T04:44:41;96227.00;;;8.60
14851;BMP180;7517;48.400;11.770;2022-12-07T04:47:08;96232.00;;;8.60
14851;BMP180;7517;48.400;11.770;2022-12-07T04:49:35;96222.00;;;8.60
14851;BMP180;7517;48.400;11.770;2022-12-07T04:52:02;96236.00;;;8.60
14851;BMP180;7517;48.400;11.770;2022-12-07T04:54:31;96234.00;;;8.60
14851;BMP180;7517;48.400;11.770;2022-12-07T04:56:58;96231.00;;;8.60
14851;BMP180;7517;48.400;11.770;2022-12-07T04:59:25;96234.00;;;8.60
14851;BMP180;7517;48.400;11.770;2022-12-07T05:01:52;96230.00;;;8.60
14851;BMP180;7517;48.400;11.770;2022-12-07T05:04:22;96231.00;;;8.60
14851;BMP180;7517;48.400;11.770;2022-12-07T05:06:49;96245.00;;;8.60
14851;BMP180;7517;48.400;11.770;2022-12-07T05:09:16;96238.00;;;8.60
14851;BMP180;7517;48.400;11.770;2022-12-07T05:11:45;96230.00;;;8.60
14851;BMP180;7517;48.400;11.770;2022-12-07T05:14:18;96237.00;;;8.60
14851;BMP180;7517;48.400;11.770;2022-12-07T05:16:48;96239.00;;;8.60
14851;BMP180;7517;48.400;11.770;2022-12-07T05:19:16;96237.00;;;8.60
14851;BMP180;7517;48.400;11.770;2022-12-07T05:21:43;96238.00;;;8.60
14851;BMP180;7517;48.400;11.770;2022-12-07T05:24:13;96238.00;;;8.60
14851;BMP180;7517;48.400;11.770;2022-12-07T05:26:42;96229.00;;;8.60
14851;BMP180;7517;48.400;11.770;2022-12-07T05:29:13;96244.00;;;8.60
14851;BMP180;7517;48.400;11.770;2022-12-07T05:31:41;96235.00;;;8.50
14851;BMP180;7517;48.400;11.770;2022-12-07T05:34:08;96238.00;;;8.50
14851;BMP180;7517;48.400;11.770;2022-12-07T05:36:36;96234.00;;;8.50
14851;BMP180;7517;48.400;11.770;2022-12-07T05:39:03;96240.00;;;8.50
14851;BMP180;7517;48.400;11.770;2022-12-07T05:41:31;96239.00;;;8.50
14851;BMP180;7517;48.400;11.770;2022-12-07T05:44:17;96239.00;;;8.50
14851;BMP180;7517;48.400;11.770;2022-12-07T05:46:44;96238.00;;;8.50
14851;BMP180;7517;48.400;11.770;2022-12-07T05:49:11;96237.00;;;8.50
14851;BMP180;7517;48.400;11.770;2022-12-07T05:51:38;96232.00;;;8.50
14851;BMP180;7517;48.400;11.770;2022-12-07T05:54:05;96232.00;;;8.50
14851;BMP180;7517;48.400;11.770;2022-12-07T05:56:32;96235.00;;;8.50
14851;BMP180;7517;48.400;11.770;2022-12-07T05:59:00;96230.00;;;8.50
14851;BMP180;7517;48.400;11.770;2022-12-07T06:01:46;96236.00;;;8.50
14851;BMP180;7517;48.400;11.770;2022-12-07T06:04:13;96237.00;;;8.50
14851;BMP180;7517;48.400;11.770;2022-12-07T06:06:40;96230.00;;;8.50
14851;BMP180;7517;48.400;11.770;2022-12-07T06:09:07;96227.00;;;8.50
14851;BMP180;7517;48.400;11.770;2022-12-07T06:11:35;96223.00;;;8.50
14851;BMP180;7517;48.400;11.770;2022-12-07T06:14:19;96222.00;;;8.50
14851;BMP180;7517;48.400;11.770;2022-12-07T06:16:47;96223.00;;;8.40
14851;BMP180;7517;48.400;11.770;2022-12-07T06:19:15;96227.00;;;8.40
14851;BMP180;7517;48.400;11.770;2022-12-07T06:21:42;96220.00;;;8.40
14851;BMP180;7517;48.400;11.770;2022-12-07T06:24:12;96228.00;;;8.40
14851;BMP180;7517;48.400;11.770;2022-12-07T06:26:39;96231.00;;;8.40
14851;BMP180;7517;48.400;11.770;2022-12-07T06:29:08;96239.00;;;8.40
14851;BMP180;7517;48.400;11.770;2022-12-07T06:31:36;96223.00;;;8.40
14851;BMP180;7517;48.400;11.770;2022-12-07T06:34:08;96233.00;;;8.50
14851;BMP180;7517;48.400;11.770;2022-12-07T06:36:36;96230.00;;;8.50
14851;BMP180;7517;48.400;11.770;2022-12-07T06:39:04;96239.00;;;8.50
14851;BMP180;7517;48.400;11.770;2022-12-07T06:41:32;96243.00;;;8.50
14851;BMP180;7517;48.400;11.770;2022-12-07T06:43:59;96239.00;;;8.50
14851;BMP180;7517;48.400;11.770;2022-12-07T06:46:26;96238.00;;;8.50
14851;BMP180;7517;48.400;11.770;2022-12-07T06:48:53;96247.00;;;8.50
14851;BMP180;7517;48.400;11.770;2022-12-07T06:51:22;96245.00;;;8.50
14851;BMP180;7517;48.400;11.770;2022-12-07T06:53:49;96240.00;;;8.50
14851;BMP180;7517;48.400;11.770;2022-12-07T06:56:16;96243.00;;;8.40
14851;BMP180;7517;48.400;11.770;2022-12-07T06:58:43;96241.00;;;8.40
14851;BMP180;7517;48.400;11.770;2022-12-07T07:01:11;96236.00;;;8.40
14851;BMP180;7517;48.400;11.770;2022-12-07T07:03:39;96243.00;;;8.40
14851;BMP180;7517;48.400;11.770;2022-12-07T07:06:07;96243.00;;;8.30
14851;BMP180;7517;48.400;11.770;2022-12-07T07:08:37;96242.00;;;8.30
14851;BMP180;7517;48.400;11.770;2022-12-07T07:11:05;96245.00;;;8.30
14851;BMP180;7517;48.400;11.770;2022-12-07T07:13:33;96240.00;;;8.20
14851;BMP180;7517;48.400;11.770;2022-12-07T07:16:01;96248.00;;;8.20
14851;BMP180;7517;48.400;11.770;2022-12-07T07:18:28;96240.00;;;8.20
14851;BMP180;7517;48.400;11.770;2022-12-07T07:20:56;96249.00;;;8.20
14851;BMP180;7517;48.400;11.770;2022-12-07T07:23:23;96248.00;;;8.20
14851;BMP180;7517;48.400;11.770;2022-12-07T07:25:52;96248.00;;;8.20
14851;BMP180;7517;48.400;11.770;2022-12-07T07:28:19;96247.00;;;8.20
14851;BMP180;7517;48.400;11.770;2022-12-07T07:30:47;96244.00;;;8.20
14851;BMP180;7517;48.400;11.770;2022-12-07T07:33:14;96240.00;;;8.20
14851;BMP180;7517;48.400;11.770;2022-12-07T07:35:42;96244.00;;;8.20
14851;BMP180;7517;48.400;11.770;2022-12-07T07:38:09;96249.00;;;8.20
14851;BMP180;7517;48.400;11.770;2022-12-07T07:40:36;96245.00;;;8.20
14851;BMP180;7517;48.400;11.770;2022-12-07T07:43:04;96242.00;;;8.20
14851;BMP180;7517;48.400;11.770;2022-12-07T07:45:32;96248.00;;;8.20
14851;BMP180;7517;48.400;11.770;2022-12-07T07:47:59;96241.00;;;8.20
14851;BMP180;7517;48.400;11.770;2022-12-07T07:50:26;96240.00;;;8.30
14851;BMP180;7517;48.400;11.770;2022-12-07T07:52:53;96252.00;;;8.30
14851;BMP180;7517;48.400;11.770;2022-12-07T07:55:21;96256.00;;;8.30
14851;BMP180;7517;48.400;11.770;2022-12-07T07:57:48;96254.00;;;8.30
14851;BMP180;7517;48.400;11.770;2022-12-07T08:00:18;96260.00;;;8.30
14851;BMP180;7517;48.400;11.770;2022-12-07T08:02:45;96259.00;;;8.30
14851;BMP180;7517;48.400;11.770;2022-12-07T08:05:13;96264.00;;;8.30
14851;BMP180;7517;48.400;11.770;2022-12-07T08:07:41;96274.00;;;8.40
14851;BMP180;7517;48.400;11.770;2022-12-07T08:10:12;96275.00;;;8.40
14851;BMP180;7517;48.400;11.770;2022-12-07T08:12:42;96279.00;;;8.40
14851;BMP180;7517;48.400;11.770;2022-12-07T08:15:26;96275.00;;;8.40
14851;BMP180;7517;48.400;11.770;2022-12-07T08:17:53;96278.00;;;8.40
14851;BMP180;7517;48.400;11.770;2022-12-07T08:20:21;96279.00;;;8.40
14851;BMP180;7517;48.400;11.770;2022-12-07T08:22:48;96300.00;;;8.40
14851;BMP180;7517;48.400;11.770;2022-12-07T08:25:15;96292.00;;;8.40
14851;BMP180;7517;48.400;11.770;2022-12-07T08:27:42;96299.00;;;8.30
14851;BMP180;7517;48.400;11.770;2022-12-07T08:30:10;96298.00;;;8.30
14851;BMP180;7517;48.400;11.770;2022-12-07T08:32:39;96295.00;;;8.30
14851;BMP180;7517;48.400;11.770;2022-12-07T08:35:08;96298.00;;;8.30
14851;BMP180;7517;48.400;11.770;2022-12-07T08:37:36;96299.00;;;8.30
14851;BMP180;7517;48.400;11.770;2022-12-07T08:40:04;96301.00;;;8.20
14851;BMP180;7517;48.400;11.770;2022-12-07T08:42:32;96295.00;;;8.20
14851;BMP180;7517;48.400;11.770;2022-12-07T08:45:05;96290.00;;;8.20
14851;BMP180;7517;48.400;11.770;2022-12-07T08:47:34;96294.00;;;8.20
14851;BMP180;7517;48.400;11.770;2022-12-07T08:50:06;96298.00;;;8.20
14851;BMP180;7517;48.400;11.770;2022-12-07T08:52:35;96285.00;;;8.10
14851;BMP180;7517;48.400;11.770;2022-12-07T08:55:05;96296.00;;;8.10
14851;BMP180;7517;48.400;11.770;2022-12-07T08:57:35;96292.00;;;8.10
14851;BMP180;7517;48.400;11.770;2022-12-07T09:00:04;96293.00;;;8.10
14851;BMP180;7517;48.400;11.770;2022-12-07T09:02:32;96297.00;;;8.10
14851;BMP180;7517;48.400;11.770;2022-12-07T09:04:59;96295.00;;;8.10
14851;BMP180;7517;48.400;11.770;2022-12-07T09:07:32;96295.00;;;8.10
14851;BMP180;7517;48.400;11.770;2022-12-07T09:09:59;96296.00;;;8.10
14851;BMP180;7517;48.400;11.770;2022-12-07T09:12:26;96292.00;;;8.10
14851;BMP180;7517;48.400;11.770;2022-12-07T09:14:53;96297.00;;;8.10
14851;BMP180;7517;48.400;11.770;2022-12-07T09:17:21;96291.00;;;8.10
14851;BMP180;7517;48.400;11.770;2022-12-07T09:19:48;96300.00;;;8.10
14851;BMP180;7517;48.400;11.770;2022-12-07T09:22:15;96296.00;;;8.10
14851;BMP180;7517;48.400;11.770;2022-12-07T09:24:44;96286.00;;;8.10
14851;BMP180;7517;48.400;11.770;2022-12-07T09:27:11;96297.00;;;8.20
14851;BMP180;7517;48.400;11.770;2022-12-07T09:29:38;96288.00;;;8.20
14851;BMP180;7517;48.400;11.770;2022-12-07T09:32:06;96285.00;;;8.30
14851;BMP180;7517;48.400;11.770;2022-12-07T09:34:33;96298.00;;;8.40
14851;BMP180;7517;48.400;11.770;2022-12-07T09:37:01;96294.00;;;8.50
14851;BMP180;7517;48.400;11.770;2022-12-07T09:39:29;96287.00;;;8.50
14851;BMP180;7517;48.400;11.770;2022-12-07T09:41:59;96294.00;;;8.60
14851;BMP180;7517;48.400;11.770;2022-12-07T09:44:27;96281.00;;;8.70
14851;BMP180;7517;48.400;11.770;2022-12-07T09:46:55;96280.00;;;8.80
14851;BMP180;7517;48.400;11.770;2022-12-07T09:49:25;96278.00;;;8.80
14851;BMP180;7517;48.400;11.770;2022-12-07T09:52:16;96279.00;;;8.90
14851;BMP180;7517;48.400;11.770;2022-12-07T09:54:48;96281.00;;;8.90
14851;BMP180;7517;48.400;11.770;2022-12-07T09:57:19;96282.00;;;8.90
14851;BMP180;7517;48.400;11.770;2022-12-07T09:59:50;96279.00;;;9.00
14851;BMP180;7517;48.400;11.770;2022-12-07T10:02:35;96277.00;;;9.00
14851;BMP180;7517;48.400;11.770;2022-12-07T10:05:09;96276.00;;;9.00
14851;BMP180;7517;48.400;11.770;2022-12-07T10:07:37;96284.00;;;9.00
14851;BMP180;7517;48.400;11.770;2022-12-07T10:10:14;96275.00;;;9.00
14851;BMP180;7517;48.400;11.770;2022-12-07T10:13:00;96280.00;;;8.90
14851;BMP180;7517;48.400;11.770;2022-12-07T10:15:53;96280.00;;;8.90
14851;BMP180;7517;48.400;11.770;2022-12-07T10:18:32;96281.00;;;8.90
14851;BMP180;7517;48.400;11.770;2022-12-07T10:21:09;96270.00;;;8.90
14851;BMP180;7517;48.400;11.770;2022-12-07T10:23:39;96274.00;;;9.00
14851;BMP180;7517;48.400;11.770;2022-12-07T10:26:40;96272.00;;;9.10
14851;BMP180;7517;48.400;11.770;2022-12-07T10:29:20;96273.00;;;9.30
14851;BMP180;7517;48.400;11.770;2022-12-07T10:31:56;96273.00;;;9.40
14851;BMP180;7517;48.400;11.770;2022-12-07T10:34:27;96270.00;;;9.50
14851;BMP180;7517;48.400;11.770;2022-12-07T10:37:15;96275.00;;;9.60
14851;BMP180;7517;48.400;11.770;2022-12-07T10:39:48;96266.00;;;9.70
14851;BMP180;7517;48.400;11.770;2022-12-07T10:42:18;96262.00;;;9.70
14851;BMP180;7517;48.400;11.770;2022-12-07T10:44:50;96265.00;;;9.70
14851;BMP180;7517;48.400;11.770;2022-12-07T10:47:33;96258.00;;;9.80
14851;BMP180;7517;48.400;11.770;2022-12-07T10:50:41;96260.00;;;9.80
14851;BMP180;7517;48.400;11.770;2022-12-07T10:53:42;96257.00;;;9.80
14851;BMP180;7517;48.400;11.770;2022-12-07T10:56:42;96253.00;;;9.90
14851;BMP180;7517;48.400;11.770;2022-12-07T10:59:48;96252.00;;;9.90
14851;BMP180;7517;48.400;11.770;2022-12-07T11:02:46;96257.00;;;10.00
14851;BMP180;7517;48.400;11.770;2022-12-07T11:05:25;96259.00;;;10.00
14851;BMP180;7517;48.400;11.770;2022-12-07T11:08:05;96257.00;;;10.10
14851;BMP180;7517;48.400;11.770;2022-12-07T11:10:47;96260.00;;;10.20
14851;BMP180;7517;48.400;11.770;2022-12-07T11:13:29;96242.00;;;10.20
14851;BMP180;7517;48.400;11.770;2022-12-07T11:16:23;96244.00;;;10.20
14851;BMP180;7517;48.400;11.770;2022-12-07T11:19:20;96240.00;;;10.20
14851;BMP180;7517;48.400;11.770;2022-12-07T11:21:57;96232.00;;;10.30
14851;BMP180;7517;48.400;11.770;2022-12-07T11:24:35;96236.00;;;10.30
14851;BMP180;7517;48.400;11.770;2022-12-07T11:27:21;96232.00;;;10.30
14851;BMP180;7517;48.400;11.770;2022-12-07T11:30:12;96220.00;;;10.30
14851;BMP180;7517;48.400;11.770;2022-12-07T11:33:07;96223.00;;;10.30
14851;BMP180;7517;48.400;11.770;2022-12-07T11:35:54;96222.00;;;10.30
14851;BMP180;7517;48.400;11.770;2022-12-07T11:38:35;96221.00;;;10.40
14851;BMP180;7517;48.400;11.770;2022-12-07T11:41:06;96216.00;;;10.40
14851;BMP180;7517;48.400;11.770;2022-12-07T11:43:53;96217.00;;;10.50
14851;BMP180;7517;48.400;11.770;2022-12-07T11:46:27;96220.00;;;10.50
14851;BMP180;7517;48.400;11.770;2022-12-07T11:49:03;96217.00;;;10.50
14851;BMP180;7517;48.400;11.770;2022-12-07T11:51:37;96216.00;;;10.50
14851;BMP180;7517;48.400;11.770;2022-12-07T11:54:14;96218.00;;;10.60
14851;BMP180;7517;48.400;11.770;2022-12-07T11:56:45;96211.00;;;10.60
14851;BMP180;7517;48.400;11.770;2022-12-07T11:59:23;96216.00;;;10.60
14851;BMP180;7517;48.400;11.770;2022-12-07T12:01:58;96206.00;;;10.60
14851;BMP180;7517;48.400;11.770;2022-12-07T12:04:48;96204.00;;;10.60
14851;BMP180;7517;48.400;11.770;2022-12-07T12:07:22;96198.00;;;10.50
14851;BMP180;7517;48.400;11.770;2022-12-07T12:09:53;96204.00;;;10.60
14851;BMP180;7517;48.400;11.770;2022-12-07T12:15:42;96199.00;;;10.60
14851;BMP180;7517;48.400;11.770;2022-12-07T12:18:46;96190.00;;;10.60
14851;BMP180;7517;48.400;11.770;2022-12-07T12:21:20;96193.00;;;10.60
14851;BMP180;7517;48.400;11.770;2022-12-07T12:23:55;96194.00;;;10.60
14851;BMP180;7517;48.400;11.770;2022-12-07T12:26:27;96188.00;;;10.60
14851;BMP180;7517;48.400;11.770;2022-12-07T12:28:58;96185.00;;;10.60
14851;BMP180;7517;48.400;11.770;2022-12-07T12:31:35;96192.00;;;10.60
14851;BMP180;7517;48.400;11.770;2022-12-07T12:36:48;96172.00;;;10.60
14851;BMP180;7517;48.400;11.770;2022-12-07T12:39:17;96182.00;;;10.60
14851;BMP180;7517;48.400;11.770;2022-12-07T12:42:18;96178.00;;;10.60
14851;BMP180;7517;48.400;11.770;2022-12-07T12:45:20;96176.00;;;10.60
14851;BMP180;7517;48.400;11.770;2022-12-07T12:48:03;96184.00;;;10.60
14851;BMP180;7517;48.400;11.770;2022-12-07T12:50:34;96184.00;;;10.50
14851;BMP180;7517;48.400;11.770;2022-12-07T12:53:20;96182.00;;;10.50
14851;BMP180;7517;48.400;11.770;2022-12-07T12:56:26;96182.00;;;10.50
14851;BMP180;7517;48.400;11.770;2022-12-07T12:59:23;96179.00;;;10.40
14851;BMP180;7517;48.400;11.770;2022-12-07T13:01:54;96171.00;;;10.40
14851;BMP180;7517;48.400;11.770;2022-12-07T13:04:57;96172.00;;;10.40
14851;BMP180;7517;48.400;11.770;2022-12-07T13:07:58;96172.00;;;10.40
14851;BMP180;7517;48.400;11.770;2022-12-07T13:10:46;96171.00;;;10.40
14851;BMP180;7517;48.400;11.770;2022-12-07T13:13:35;96167.00;;;10.40
14851;BMP180;7517;48.400;11.770;2022-12-07T13:16:40;96165.00;;;10.30
14851;BMP180;7517;48.400;11.770;2022-12-07T13:19:57;96159.00;;;10.30
14851;BMP180;7517;48.400;11.770;2022-12-07T13:22:51;96160.00;;;10.20
14851;BMP180;7517;48.400;11.770;2022-12-07T13:25:38;96153.00;;;10.20
14851;BMP180;7517;48.400;11.770;2022-12-07T13:28:15;96150.00;;;10.20
14851;BMP180;7517;48.400;11.770;2022-12-07T13:30:54;96153.00;;;10.20
14851;BMP180;7517;48.400;11.770;2022-12-07T13:33:27;96153.00;;;10.30
14851;BMP180;7517;48.400;11.770;2022-12-07T13:35:56;96148.00;;;10.30
14851;BMP180;7517;48.400;11.770;2022-12-07T13:38:29;96145.00;;;10.30
14851;BMP180;7517;48.400;11.770;2022-12-07T13:41:10;96144.00;;;10.30
14851;BMP180;7517;48.400;11.770;2022-12-07T13:43:50;96146.00;;;10.30
14851;BMP180;7517;48.400;11.770;2022-12-07T13:46:25;96150.00;;;10.30
14851;BMP180;7517;48.400;11.770;2022-12-07T13:48:53;96144.00;;;10.30
14851;BMP180;7517;48.400;11.770;2022-12-07T13:51:24;96143.00;;;10.30
14851;BMP180;7517;48.400;11.770;2022-12-07T13:53:54;96151.00;;;10.30
14851;BMP180;7517;48.400;11.770;2022-12-07T13:56:31;96147.00;;;10.30
14851;BMP180;7517;48.400;11.770;2022-12-07T13:59:00;96147.00;;;10.30
14851;BMP180;7517;48.400;11.770;2022-12-07T14:01:28;96147.00;;;10.20
14851;BMP180;7517;48.400;11.770;2022-12-07T14:04:18;96152.00;;;10.20
14851;BMP180;7517;48.400;11.770;2022-12-07T14:06:50;96146.00;;;10.20
14851;BMP180;7517;48.400;11.770;2022-12-07T14:09:20;96149.00;;;10.30
14851;BMP180;7517;48.400;11.770;2022-12-07T14:11:53;96156.00;;;10.30
14851;BMP180;7517;48.400;11.770;2022-12-07T14:14:25;96146.00;;;10.20
14851;BMP180;7517;48.400;11.770;2022-12-07T14:17:08;96148.00;;;10.20
14851;BMP180;7517;48.400;11.770;2022-12-07T14:19:47;96148.00;;;10.20
14851;BMP180;7517;48.400;11.770;2022-12-07T14:22:37;96142.00;;;10.20
14851;BMP180;7517;48.400;11.770;2022-12-07T14:25:20;96141.00;;;10.20
14851;BMP180;7517;48.400;11.770;2022-12-07T14:27:53;96140.00;;;10.20
14851;BMP180;7517;48.400;11.770;2022-12-07T14:30:23;96138.00;;;10.20
14851;BMP180;7517;48.400;11.770;2022-12-07T14:32:54;96143.00;;;10.20
14851;BMP180;7517;48.400;11.770;2022-12-07T14:35:23;96138.00;;;10.20
14851;BMP180;7517;48.400;11.770;2022-12-07T14:37:50;96145.00;;;10.10
14851;BMP180;7517;48.400;11.770;2022-12-07T14:40:21;96138.00;;;10.10
14851;BMP180;7517;48.400;11.770;2022-12-07T14:42:54;96145.00;;;10.10
14851;BMP180;7517;48.400;11.770;2022-12-07T14:45:23;96139.00;;;10.10
14851;BMP180;7517;48.400;11.770;2022-12-07T14:47:50;96134.00;;;10.10
14851;BMP180;7517;48.400;11.770;2022-12-07T14:50:20;96129.00;;;10.10
14851;BMP180;7517;48.400;11.770;2022-12-07T14:52:52;96126.00;;;10.10
14851;BMP180;7517;48.400;11.770;2022-12-07T14:55:25;96131.00;;;10.10
14851;BMP180;7517;48.400;11.770;2022-12-07T14:57:55;96128.00;;;10.10
14851;BMP180;7517;48.400;11.770;2022-12-07T15:00:24;96124.00;;;10.00
14851;BMP180;7517;48.400;11.770;2022-12-07T15:02:52;96128.00;;;10.00
14851;BMP180;7517;48.400;11.770;2022-12-07T15:05:20;96124.00;;;10.00